sensor_id;sensor_type;location;lat;lon;timestamp;temperature;humidity
19755;DHT22;10036;47.812;9.274;2022-10-31T00:01:24;9.10;99.90
19755;DHT22;10036;47.812;9.274;2022-10-31T00:03:51;9.00;99.90
19755;DHT22;10036;47.812;9.274;2022-10-31T00:06:18;9.00;99.90
19755;DHT22;10036;47.812;9.274;2022-10-31T00:08:45;9.10;99.90
19755;DHT22;10036;47.812;9.274;2022-10-31T00:11:14;9.00;99.90
19755;DHT22;10036;47.812;9.274;2022-10-31T00:13:40;8.90;99.90
19755;DHT22;10036;47.812;9.274;2022-10-31T00:16:14;9.00;99.90
19755;DHT22;10036;47.812;9.274;2022-10-31T00:18:41;9.00;99.90
19755;DHT22;10036;47.812;9.274;2022-10-31T00:21:08;9.10;99.90
19755;DHT22;10036;47.812;9.274;2022-10-31T00:23:35;9.20;99.90
19755;DHT22;10036;47.812;9.274;2022-10-31T00:26:03;9.30;99.90
19755;DHT22;10036;47.812;9.274;2022-10-31T00:28:31;9.30;99.90
19755;DHT22;10036;47.812;9.274;2022-10-31T00:30:59;9.20;99.90
19755;DHT22;10036;47.812;9.274;2022-10-31T00:33:26;9.10;99.90
19755;DHT22;10036;47.812;9.274;2022-10-31T00:35:53;9.00;99.90
19755;DHT22;10036;47.812;9.274;2022-10-31T00:38:21;8.90;99.90
19755;DHT22;10036;47.812;9.274;2022-10-31T00:40:47;8.80;99.90
19755;DHT22;10036;47.812;9.274;2022-10-31T00:43:14;8.80;99.90
19755;DHT22;10036;47.812;9.274;2022-10-31T00:45:43;9.00;99.90
19755;DHT22;10036;47.812;9.274;2022-10-31T00:48:10;9.10;99.90
19755;DHT22;10036;47.812;9.274;2022-10-31T00:50:38;9.00;99.90
19755;DHT22;10036;47.812;9.274;2022-10-31T00:53:05;9.00;99.90
19755;DHT22;10036;47.812;9.274;2022-10-31T00:55:32;9.00;99.90
19755;DHT22;10036;47.812;9.274;2022-10-31T00:57:59;9.00;99.90
19755;DHT22;10036;47.812;9.274;2022-10-31T01:00:26;8.90;99.90
19755;DHT22;10036;47.812;9.274;2022-10-31T01:02:55;8.80;99.90
19755;DHT22;10036;47.812;9.274;2022-10-31T01:05:22;8.80;99.90
19755;DHT22;10036;47.812;9.274;2022-10-31T01:07:48;8.80;99.90
19755;DHT22;10036;47.812;9.274;2022-10-31T01:10:16;8.80;99.90
19755;DHT22;10036;47.812;9.274;2022-10-31T01:12:45;8.80;99.90
19755;DHT22;10036;47.812;9.274;2022-10-31T01:15:14;9.00;99.90
19755;DHT22;10036;47.812;9.274;2022-10-31T01:17:41;9.10;99.90
19755;DHT22;10036;47.812;9.274;2022-10-31T01:20:11;9.10;99.90
19755;DHT22;10036;47.812;9.274;2022-10-31T01:22:38;9.20;99.90
19755;DHT22;10036;47.812;9.274;2022-10-31T01:25:07;9.20;99.90
19755;DHT22;10036;47.812;9.274;2022-10-31T01:27:34;9.20;99.90
19755;DHT22;10036;47.812;9.274;2022-10-31T01:30:02;9.10;99.90
19755;DHT22;10036;47.812;9.274;2022-10-31T01:32:28;9.00;99.90
19755;DHT22;10036;47.812;9.274;2022-10-31T01:34:55;9.10;99.90
19755;DHT22;10036;47.812;9.274;2022-10-31T01:37:23;9.00;99.90
19755;DHT22;10036;47.812;9.274;2022-10-31T01:39:50;9.10;99.90
19755;DHT22;10036;47.812;9.274;2022-10-31T01:42:19;9.20;99.90
19755;DHT22;10036;47.812;9.274;2022-10-31T01:44:55;9.30;99.90
19755;DHT22;10036;47.812;9.274;2022-10-31T01:47:35;9.40;99.90
19755;DHT22;10036;47.812;9.274;2022-10-31T01:50:10;9.40;99.90
19755;DHT22;10036;47.812;9.274;2022-10-31T01:52:41;9.40;99.90
19755;DHT22;10036;47.812;9.274;2022-10-31T01:55:11;9.40;99.90
19755;DHT22;10036;47.812;9.274;2022-10-31T01:57:41;9.40;99.90
19755;DHT22;10036;47.812;9.274;2022-10-31T02:00:11;9.20;99.90
19755;DHT22;10036;47.812;9.274;2022-10-31T02:02:38;9.20;99.90
19755;DHT22;10036;47.812;9.274;2022-10-31T02:05:07;9.20;99.90
19755;DHT22;10036;47.812;9.274;2022-10-31T02:07:39;9.10;99.90
19755;DHT22;10036;47.812;9.274;2022-10-31T02:10:09;9.10;99.90
19755;DHT22;10036;47.812;9.274;2022-10-31T02:12:36;9.10;99.90
19755;DHT22;10036;47.812;9.274;2022-10-31T02:15:05;9.00;99.90
19755;DHT22;10036;47.812;9.274;2022-10-31T02:17:33;9.00;99.90
19755;DHT22;10036;47.812;9.274;2022-10-31T02:20:09;9.00;99.90
19755;DHT22;10036;47.812;9.274;2022-10-31T02:22:43;9.10;99.90
19755;DHT22;10036;47.812;9.274;2022-10-31T02:25:38;9.20;99.90
19755;DHT22;10036;47.812;9.274;2022-10-31T02:28:30;9.30;99.90
19755;DHT22;10036;47.812;9.274;2022-10-31T02:31:16;9.40;99.90
19755;DHT22;10036;47.812;9.274;2022-10-31T02:33:51;9.40;99.90
19755;DHT22;10036;47.812;9.274;2022-10-31T02:36:23;9.30;99.90
19755;DHT22;10036;47.812;9.274;2022-10-31T02:39:00;9.20;99.90
19755;DHT22;10036;47.812;9.274;2022-10-31T02:41:34;9.10;99.90
19755;DHT22;10036;47.812;9.274;2022-10-31T02:44:08;9.00;99.90
19755;DHT22;10036;47.812;9.274;2022-10-31T02:46:44;9.10;99.90
19755;DHT22;10036;47.812;9.274;2022-10-31T02:49:20;9.00;99.90
19755;DHT22;10036;47.812;9.274;2022-10-31T02:51:49;9.00;99.90
19755;DHT22;10036;47.812;9.274;2022-10-31T02:54:18;9.10;99.90
19755;DHT22;10036;47.812;9.274;2022-10-31T02:56:47;9.20;99.90
19755;DHT22;10036;47.812;9.274;2022-10-31T02:59:15;9.30;99.90
19755;DHT22;10036;47.812;9.274;2022-10-31T03:05:02;9.40;99.90
19755;DHT22;10036;47.812;9.274;2022-10-31T03:07:36;9.40;99.90
19755;DHT22;10036;47.812;9.274;2022-10-31T03:10:11;9.40;99.90
19755;DHT22;10036;47.812;9.274;2022-10-31T03:12:47;9.40;99.90
19755;DHT22;10036;47.812;9.274;2022-10-31T03:15:21;9.40;99.90
19755;DHT22;10036;47.812;9.274;2022-10-31T03:17:57;9.40;99.90
19755;DHT22;10036;47.812;9.274;2022-10-31T03:20:30;9.30;99.90
19755;DHT22;10036;47.812;9.274;2022-10-31T03:23:01;9.20;99.90
19755;DHT22;10036;47.812;9.274;2022-10-31T03:25:29;9.20;99.90
19755;DHT22;10036;47.812;9.274;2022-10-31T03:27:59;9.30;99.90
19755;DHT22;10036;47.812;9.274;2022-10-31T03:30:28;9.20;99.90
19755;DHT22;10036;47.812;9.274;2022-10-31T03:32:59;9.20;99.90
19755;DHT22;10036;47.812;9.274;2022-10-31T03:35:27;9.30;99.90
19755;DHT22;10036;47.812;9.274;2022-10-31T03:37:55;9.30;99.90
19755;DHT22;10036;47.812;9.274;2022-10-31T03:40:24;9.30;99.90
19755;DHT22;10036;47.812;9.274;2022-10-31T03:42:56;9.30;99.90
19755;DHT22;10036;47.812;9.274;2022-10-31T03:45:25;9.30;99.90
19755;DHT22;10036;47.812;9.274;2022-10-31T03:47:54;9.30;99.90
19755;DHT22;10036;47.812;9.274;2022-10-31T03:50:24;9.20;99.90
19755;DHT22;10036;47.812;9.274;2022-10-31T03:52:57;9.30;99.90
19755;DHT22;10036;47.812;9.274;2022-10-31T03:55:29;9.10;99.90
19755;DHT22;10036;47.812;9.274;2022-10-31T03:57:59;9.10;99.90
19755;DHT22;10036;47.812;9.274;2022-10-31T04:00:30;9.00;99.90
19755;DHT22;10036;47.812;9.274;2022-10-31T04:03:03;9.00;99.90
19755;DHT22;10036;47.812;9.274;2022-10-31T04:05:33;9.10;99.90
19755;DHT22;10036;47.812;9.274;2022-10-31T04:08:03;9.10;99.90
19755;DHT22;10036;47.812;9.274;2022-10-31T04:10:31;9.10;99.90
19755;DHT22;10036;47.812;9.274;2022-10-31T04:13:03;9.10;99.90
19755;DHT22;10036;47.812;9.274;2022-10-31T04:15:32;9.20;99.90
19755;DHT22;10036;47.812;9.274;2022-10-31T04:18:00;9.20;99.90
19755;DHT22;10036;47.812;9.274;2022-10-31T04:20:33;9.30;99.90
19755;DHT22;10036;47.812;9.274;2022-10-31T04:23:00;9.30;99.90
19755;DHT22;10036;47.812;9.274;2022-10-31T04:25:27;9.30;99.90
19755;DHT22;10036;47.812;9.274;2022-10-31T04:27:54;9.30;99.90
19755;DHT22;10036;47.812;9.274;2022-10-31T04:30:21;9.30;99.90
19755;DHT22;10036;47.812;9.274;2022-10-31T04:32:48;9.30;99.90
19755;DHT22;10036;47.812;9.274;2022-10-31T04:35:15;9.30;99.90
19755;DHT22;10036;47.812;9.274;2022-10-31T04:37:43;9.40;99.90
19755;DHT22;10036;47.812;9.274;2022-10-31T04:40:11;9.40;99.90
19755;DHT22;10036;47.812;9.274;2022-10-31T04:42:38;9.40;99.90
19755;DHT22;10036;47.812;9.274;2022-10-31T04:45:05;9.50;99.90
19755;DHT22;10036;47.812;9.274;2022-10-31T04:47:33;9.50;99.90
19755;DHT22;10036;47.812;9.274;2022-10-31T04:50:00;9.50;99.90
19755;DHT22;10036;47.812;9.274;2022-10-31T04:52:27;9.50;99.90
19755;DHT22;10036;47.812;9.274;2022-10-31T04:54:55;9.50;99.90
19755;DHT22;10036;47.812;9.274;2022-10-31T04:57:22;9.50;99.90
19755;DHT22;10036;47.812;9.274;2022-10-31T04:59:49;9.50;99.90
19755;DHT22;10036;47.812;9.274;2022-10-31T05:02:15;9.50;99.90
19755;DHT22;10036;47.812;9.274;2022-10-31T05:04:42;9.50;99.90
19755;DHT22;10036;47.812;9.274;2022-10-31T05:07:09;9.50;99.90
19755;DHT22;10036;47.812;9.274;2022-10-31T05:09:36;9.40;99.90
19755;DHT22;10036;47.812;9.274;2022-10-31T05:12:04;9.50;99.90
19755;DHT22;10036;47.812;9.274;2022-10-31T05:14:31;9.50;99.90
19755;DHT22;10036;47.812;9.274;2022-10-31T05:16:58;9.50;99.90
19755;DHT22;10036;47.812;9.274;2022-10-31T05:19:25;9.40;99.90
19755;DHT22;10036;47.812;9.274;2022-10-31T05:21:52;9.40;99.90
19755;DHT22;10036;47.812;9.274;2022-10-31T05:24:18;9.50;99.90
19755;DHT22;10036;47.812;9.274;2022-10-31T05:26:47;9.50;99.90
19755;DHT22;10036;47.812;9.274;2022-10-31T05:29:15;9.50;99.90
19755;DHT22;10036;47.812;9.274;2022-10-31T05:31:42;9.50;99.90
19755;DHT22;10036;47.812;9.274;2022-10-31T05:34:09;9.60;99.90
19755;DHT22;10036;47.812;9.274;2022-10-31T05:36:36;9.60;99.90
19755;DHT22;10036;47.812;9.274;2022-10-31T05:39:03;9.60;99.90
19755;DHT22;10036;47.812;9.274;2022-10-31T05:41:29;9.60;99.90
19755;DHT22;10036;47.812;9.274;2022-10-31T05:43:56;9.60;99.90
19755;DHT22;10036;47.812;9.274;2022-10-31T05:46:24;9.60;99.90
19755;DHT22;10036;47.812;9.274;2022-10-31T05:48:51;9.60;99.90
19755;DHT22;10036;47.812;9.274;2022-10-31T05:51:18;9.70;99.90
19755;DHT22;10036;47.812;9.274;2022-10-31T05:53:46;9.70;99.90
19755;DHT22;10036;47.812;9.274;2022-10-31T05:56:13;9.70;99.90
19755;DHT22;10036;47.812;9.274;2022-10-31T05:58:40;9.80;99.90
19755;DHT22;10036;47.812;9.274;2022-10-31T06:01:07;9.80;99.90
19755;DHT22;10036;47.812;9.274;2022-10-31T06:03:35;9.80;99.90
19755;DHT22;10036;47.812;9.274;2022-10-31T06:06:02;9.80;99.90
19755;DHT22;10036;47.812;9.274;2022-10-31T06:08:29;9.80;99.90
19755;DHT22;10036;47.812;9.274;2022-10-31T06:10:56;9.70;99.90
19755;DHT22;10036;47.812;9.274;2022-10-31T06:13:22;9.70;99.90
19755;DHT22;10036;47.812;9.274;2022-10-31T06:15:49;9.70;99.90
19755;DHT22;10036;47.812;9.274;2022-10-31T06:18:16;9.60;99.90
19755;DHT22;10036;47.812;9.274;2022-10-31T06:20:44;9.70;99.90
19755;DHT22;10036;47.812;9.274;2022-10-31T06:23:11;9.80;99.90
19755;DHT22;10036;47.812;9.274;2022-10-31T06:25:38;9.80;99.90
19755;DHT22;10036;47.812;9.274;2022-10-31T06:28:05;9.80;99.90
19755;DHT22;10036;47.812;9.274;2022-10-31T06:30:32;9.70;99.90
19755;DHT22;10036;47.812;9.274;2022-10-31T06:33:02;9.70;99.90
19755;DHT22;10036;47.812;9.274;2022-10-31T06:35:30;9.60;99.90
19755;DHT22;10036;47.812;9.274;2022-10-31T06:37:58;9.70;99.90
19755;DHT22;10036;47.812;9.274;2022-10-31T06:40:25;9.90;99.90
19755;DHT22;10036;47.812;9.274;2022-10-31T06:42:59;9.90;99.90
19755;DHT22;10036;47.812;9.274;2022-10-31T06:45:26;9.80;99.90
19755;DHT22;10036;47.812;9.274;2022-10-31T06:47:54;9.80;99.90
19755;DHT22;10036;47.812;9.274;2022-10-31T06:50:22;9.80;99.90
19755;DHT22;10036;47.812;9.274;2022-10-31T06:52:52;9.80;99.90
19755;DHT22;10036;47.812;9.274;2022-10-31T06:55:20;9.90;99.90
19755;DHT22;10036;47.812;9.274;2022-10-31T06:57:51;9.90;99.90
19755;DHT22;10036;47.812;9.274;2022-10-31T07:00:18;9.90;99.90
19755;DHT22;10036;47.812;9.274;2022-10-31T07:02:53;9.90;99.90
19755;DHT22;10036;47.812;9.274;2022-10-31T07:05:20;9.80;99.90
19755;DHT22;10036;47.812;9.274;2022-10-31T07:07:47;9.80;99.90
19755;DHT22;10036;47.812;9.274;2022-10-31T07:10:14;9.70;99.90
19755;DHT22;10036;47.812;9.274;2022-10-31T07:12:42;9.70;99.90
19755;DHT22;10036;47.812;9.274;2022-10-31T07:15:09;9.80;99.90
19755;DHT22;10036;47.812;9.274;2022-10-31T07:17:36;9.80;99.90
19755;DHT22;10036;47.812;9.274;2022-10-31T07:20:04;9.80;99.90
19755;DHT22;10036;47.812;9.274;2022-10-31T07:22:34;9.90;99.90
19755;DHT22;10036;47.812;9.274;2022-10-31T07:25:01;9.90;99.90
19755;DHT22;10036;47.812;9.274;2022-10-31T07:27:28;9.90;99.90
19755;DHT22;10036;47.812;9.274;2022-10-31T07:29:56;9.90;99.90
19755;DHT22;10036;47.812;9.274;2022-10-31T07:32:23;10.00;99.90
19755;DHT22;10036;47.812;9.274;2022-10-31T07:34:50;10.10;99.90
19755;DHT22;10036;47.812;9.274;2022-10-31T07:37:17;10.20;99.90
19755;DHT22;10036;47.812;9.274;2022-10-31T07:39:44;10.30;99.90
19755;DHT22;10036;47.812;9.274;2022-10-31T07:42:11;10.30;99.90
19755;DHT22;10036;47.812;9.274;2022-10-31T07:44:37;10.20;99.90
19755;DHT22;10036;47.812;9.274;2022-10-31T07:47:06;10.20;99.90
19755;DHT22;10036;47.812;9.274;2022-10-31T07:49:32;10.30;99.90
19755;DHT22;10036;47.812;9.274;2022-10-31T07:51:59;10.40;99.90
19755;DHT22;10036;47.812;9.274;2022-10-31T07:54:26;10.40;99.90
19755;DHT22;10036;47.812;9.274;2022-10-31T07:56:53;10.40;99.90
19755;DHT22;10036;47.812;9.274;2022-10-31T07:59:20;10.40;99.90
19755;DHT22;10036;47.812;9.274;2022-10-31T08:01:47;10.50;99.90
19755;DHT22;10036;47.812;9.274;2022-10-31T08:04:15;10.50;99.90
19755;DHT22;10036;47.812;9.274;2022-10-31T08:06:42;10.60;99.90
19755;DHT22;10036;47.812;9.274;2022-10-31T08:09:09;10.60;99.90
19755;DHT22;10036;47.812;9.274;2022-10-31T08:11:35;10.50;99.90
19755;DHT22;10036;47.812;9.274;2022-10-31T08:14:02;10.40;99.90
19755;DHT22;10036;47.812;9.274;2022-10-31T08:16:29;10.40;99.90
19755;DHT22;10036;47.812;9.274;2022-10-31T08:18:56;10.30;99.90
19755;DHT22;10036;47.812;9.274;2022-10-31T08:21:24;10.40;99.90
19755;DHT22;10036;47.812;9.274;2022-10-31T08:23:51;10.50;99.90
19755;DHT22;10036;47.812;9.274;2022-10-31T08:26:18;10.60;99.90
19755;DHT22;10036;47.812;9.274;2022-10-31T08:28:45;10.70;99.90
19755;DHT22;10036;47.812;9.274;2022-10-31T08:31:11;10.80;99.90
19755;DHT22;10036;47.812;9.274;2022-10-31T08:33:38;10.80;99.90
19755;DHT22;10036;47.812;9.274;2022-10-31T08:36:05;10.90;99.90
19755;DHT22;10036;47.812;9.274;2022-10-31T08:38:34;10.90;99.90
19755;DHT22;10036;47.812;9.274;2022-10-31T08:41:00;10.90;99.90
19755;DHT22;10036;47.812;9.274;2022-10-31T08:43:27;11.00;99.90
19755;DHT22;10036;47.812;9.274;2022-10-31T08:45:54;11.10;99.90
19755;DHT22;10036;47.812;9.274;2022-10-31T08:48:21;11.10;99.90
19755;DHT22;10036;47.812;9.274;2022-10-31T08:50:50;11.00;99.90
19755;DHT22;10036;47.812;9.274;2022-10-31T08:53:18;11.00;99.90
19755;DHT22;10036;47.812;9.274;2022-10-31T08:55:47;11.00;99.90
19755;DHT22;10036;47.812;9.274;2022-10-31T08:58:15;10.90;99.90
19755;DHT22;10036;47.812;9.274;2022-10-31T09:00:43;10.90;99.90
19755;DHT22;10036;47.812;9.274;2022-10-31T09:03:12;10.90;99.90
19755;DHT22;10036;47.812;9.274;2022-10-31T09:05:39;10.90;99.90
19755;DHT22;10036;47.812;9.274;2022-10-31T09:08:07;11.00;99.90
19755;DHT22;10036;47.812;9.274;2022-10-31T09:10:35;11.10;99.90
19755;DHT22;10036;47.812;9.274;2022-10-31T09:13:05;11.10;99.90
19755;DHT22;10036;47.812;9.274;2022-10-31T09:15:33;11.10;99.90
19755;DHT22;10036;47.812;9.274;2022-10-31T09:18:00;11.20;99.90
19755;DHT22;10036;47.812;9.274;2022-10-31T09:20:27;11.20;99.90
19755;DHT22;10036;47.812;9.274;2022-10-31T09:22:57;11.40;99.90
19755;DHT22;10036;47.812;9.274;2022-10-31T09:25:25;11.50;99.90
19755;DHT22;10036;47.812;9.274;2022-10-31T09:27:55;11.50;99.90
19755;DHT22;10036;47.812;9.274;2022-10-31T09:30:24;11.60;99.90
19755;DHT22;10036;47.812;9.274;2022-10-31T09:32:55;11.60;99.90
19755;DHT22;10036;47.812;9.274;2022-10-31T09:35:22;11.50;99.90
19755;DHT22;10036;47.812;9.274;2022-10-31T09:37:53;11.50;99.90
19755;DHT22;10036;47.812;9.274;2022-10-31T09:40:20;11.60;99.90
19755;DHT22;10036;47.812;9.274;2022-10-31T09:42:55;11.70;99.90
19755;DHT22;10036;47.812;9.274;2022-10-31T09:45:31;11.80;99.90
19755;DHT22;10036;47.812;9.274;2022-10-31T09:51:04;11.80;99.90
19755;DHT22;10036;47.812;9.274;2022-10-31T09:53:36;11.90;99.90
19755;DHT22;10036;47.812;9.274;2022-10-31T09:56:07;12.00;99.90
19755;DHT22;10036;47.812;9.274;2022-10-31T09:58:40;12.10;99.90
19755;DHT22;10036;47.812;9.274;2022-10-31T10:01:21;12.20;99.90
19755;DHT22;10036;47.812;9.274;2022-10-31T10:03:52;12.20;99.90
19755;DHT22;10036;47.812;9.274;2022-10-31T10:06:23;12.20;99.90
19755;DHT22;10036;47.812;9.274;2022-10-31T10:08:51;12.40;99.90
19755;DHT22;10036;47.812;9.274;2022-10-31T10:11:31;12.50;99.90
19755;DHT22;10036;47.812;9.274;2022-10-31T10:14:10;12.50;99.90
19755;DHT22;10036;47.812;9.274;2022-10-31T10:16:54;12.50;99.90
19755;DHT22;10036;47.812;9.274;2022-10-31T10:19:45;12.50;99.90
19755;DHT22;10036;47.812;9.274;2022-10-31T10:22:22;12.40;99.90
19755;DHT22;10036;47.812;9.274;2022-10-31T10:25:10;12.40;99.90
19755;DHT22;10036;47.812;9.274;2022-10-31T10:27:47;12.40;99.90
19755;DHT22;10036;47.812;9.274;2022-10-31T10:30:17;12.50;99.90
19755;DHT22;10036;47.812;9.274;2022-10-31T10:32:49;12.60;99.90
19755;DHT22;10036;47.812;9.274;2022-10-31T10:35:23;12.60;99.90
19755;DHT22;10036;47.812;9.274;2022-10-31T10:37:53;12.60;99.90
19755;DHT22;10036;47.812;9.274;2022-10-31T10:40:24;12.60;99.90
19755;DHT22;10036;47.812;9.274;2022-10-31T10:43:19;12.60;99.90
19755;DHT22;10036;47.812;9.274;2022-10-31T10:46:04;12.70;99.90
19755;DHT22;10036;47.812;9.274;2022-10-31T10:48:55;12.60;99.90
19755;DHT22;10036;47.812;9.274;2022-10-31T10:51:27;12.70;99.90
19755;DHT22;10036;47.812;9.274;2022-10-31T10:54:09;12.60;99.90
19755;DHT22;10036;47.812;9.274;2022-10-31T10:56:54;12.90;99.90
19755;DHT22;10036;47.812;9.274;2022-10-31T10:59:23;13.00;99.90
19755;DHT22;10036;47.812;9.274;2022-10-31T11:01:51;13.10;99.90
19755;DHT22;10036;47.812;9.274;2022-10-31T11:04:26;13.10;99.90
19755;DHT22;10036;47.812;9.274;2022-10-31T11:07:02;13.00;99.90
19755;DHT22;10036;47.812;9.274;2022-10-31T11:09:29;12.90;99.90
19755;DHT22;10036;47.812;9.274;2022-10-31T11:11:56;13.00;99.90
19755;DHT22;10036;47.812;9.274;2022-10-31T11:14:25;13.00;99.90
19755;DHT22;10036;47.812;9.274;2022-10-31T11:17:06;12.80;99.90
19755;DHT22;10036;47.812;9.274;2022-10-31T11:19:37;12.70;99.90
19755;DHT22;10036;47.812;9.274;2022-10-31T11:22:15;12.70;99.90
19755;DHT22;10036;47.812;9.274;2022-10-31T11:24:43;12.70;99.90
19755;DHT22;10036;47.812;9.274;2022-10-31T11:27:15;12.70;99.90
19755;DHT22;10036;47.812;9.274;2022-10-31T11:29:42;12.60;99.90
19755;DHT22;10036;47.812;9.274;2022-10-31T11:32:19;12.60;99.90
19755;DHT22;10036;47.812;9.274;2022-10-31T11:34:49;12.60;99.90
19755;DHT22;10036;47.812;9.274;2022-10-31T11:37:20;12.60;99.90
19755;DHT22;10036;47.812;9.274;2022-10-31T11:39:50;12.60;99.90
19755;DHT22;10036;47.812;9.274;2022-10-31T11:42:20;12.70;99.90
19755;DHT22;10036;47.812;9.274;2022-10-31T11:44:48;12.80;99.90
19755;DHT22;10036;47.812;9.274;2022-10-31T11:47:17;12.90;99.90
19755;DHT22;10036;47.812;9.274;2022-10-31T11:49:47;12.90;99.90
19755;DHT22;10036;47.812;9.274;2022-10-31T11:52:18;12.90;99.90
19755;DHT22;10036;47.812;9.274;2022-10-31T11:54:48;12.90;99.90
19755;DHT22;10036;47.812;9.274;2022-10-31T11:57:24;12.90;99.90
19755;DHT22;10036;47.812;9.274;2022-10-31T11:59:52;12.70;99.90
19755;DHT22;10036;47.812;9.274;2022-10-31T12:02:20;12.70;99.90
19755;DHT22;10036;47.812;9.274;2022-10-31T12:04:52;12.70;99.90
19755;DHT22;10036;47.812;9.274;2022-10-31T12:07:22;12.80;99.90
19755;DHT22;10036;47.812;9.274;2022-10-31T12:09:50;12.80;99.90
19755;DHT22;10036;47.812;9.274;2022-10-31T12:12:34;12.90;99.90
19755;DHT22;10036;47.812;9.274;2022-10-31T12:18:08;13.10;99.90
19755;DHT22;10036;47.812;9.274;2022-10-31T12:20:48;13.20;99.90
19755;DHT22;10036;47.812;9.274;2022-10-31T12:23:25;13.20;99.90
19755;DHT22;10036;47.812;9.274;2022-10-31T12:26:09;13.20;99.90
19755;DHT22;10036;47.812;9.274;2022-10-31T12:28:48;13.30;99.90
19755;DHT22;10036;47.812;9.274;2022-10-31T12:31:42;13.30;99.90
19755;DHT22;10036;47.812;9.274;2022-10-31T12:34:29;13.40;99.90
19755;DHT22;10036;47.812;9.274;2022-10-31T12:37:05;13.50;99.90
19755;DHT22;10036;47.812;9.274;2022-10-31T12:39:42;13.40;99.90
19755;DHT22;10036;47.812;9.274;2022-10-31T12:42:18;13.40;99.90
19755;DHT22;10036;47.812;9.274;2022-10-31T12:45:11;13.30;99.90
19755;DHT22;10036;47.812;9.274;2022-10-31T12:48:00;13.30;99.90
19755;DHT22;10036;47.812;9.274;2022-10-31T12:50:41;13.30;99.90
19755;DHT22;10036;47.812;9.274;2022-10-31T12:53:23;13.50;99.90
19755;DHT22;10036;47.812;9.274;2022-10-31T12:56:00;13.50;99.90
19755;DHT22;10036;47.812;9.274;2022-10-31T12:58:31;13.60;99.90
19755;DHT22;10036;47.812;9.274;2022-10-31T13:01:07;13.70;99.90
19755;DHT22;10036;47.812;9.274;2022-10-31T13:03:41;13.70;99.90
19755;DHT22;10036;47.812;9.274;2022-10-31T13:06:19;13.70;99.90
19755;DHT22;10036;47.812;9.274;2022-10-31T13:08:52;13.60;99.90
19755;DHT22;10036;47.812;9.274;2022-10-31T13:11:23;13.70;99.90
19755;DHT22;10036;47.812;9.274;2022-10-31T13:13:59;13.80;99.90
19755;DHT22;10036;47.812;9.274;2022-10-31T13:16:30;13.90;99.90
19755;DHT22;10036;47.812;9.274;2022-10-31T13:19:03;14.10;99.90
19755;DHT22;10036;47.812;9.274;2022-10-31T13:21:37;14.20;99.90
19755;DHT22;10036;47.812;9.274;2022-10-31T13:24:13;14.20;99.90
19755;DHT22;10036;47.812;9.274;2022-10-31T13:26:44;14.30;99.90
19755;DHT22;10036;47.812;9.274;2022-10-31T13:29:17;14.30;99.90
19755;DHT22;10036;47.812;9.274;2022-10-31T13:31:45;14.30;99.90
19755;DHT22;10036;47.812;9.274;2022-10-31T13:34:20;14.20;99.90
19755;DHT22;10036;47.812;9.274;2022-10-31T13:36:57;14.20;99.90
19755;DHT22;10036;47.812;9.274;2022-10-31T13:39:34;14.20;99.90
19755;DHT22;10036;47.812;9.274;2022-10-31T13:42:13;14.10;99.90
19755;DHT22;10036;47.812;9.274;2022-10-31T13:44:41;14.00;99.90
19755;DHT22;10036;47.812;9.274;2022-10-31T13:47:25;14.00;99.90
19755;DHT22;10036;47.812;9.274;2022-10-31T13:50:04;13.90;99.90
19755;DHT22;10036;47.812;9.274;2022-10-31T13:52:31;14.00;99.90
19755;DHT22;10036;47.812;9.274;2022-10-31T13:54:59;14.20;99.90
19755;DHT22;10036;47.812;9.274;2022-10-31T13:57:32;14.30;99.90
19755;DHT22;10036;47.812;9.274;2022-10-31T14:00:03;14.40;99.90
19755;DHT22;10036;47.812;9.274;2022-10-31T14:02:31;14.40;99.90
19755;DHT22;10036;47.812;9.274;2022-10-31T14:05:02;14.50;99.90
19755;DHT22;10036;47.812;9.274;2022-10-31T14:07:30;14.50;99.90
19755;DHT22;10036;47.812;9.274;2022-10-31T14:10:03;14.40;99.90
19755;DHT22;10036;47.812;9.274;2022-10-31T14:12:34;14.40;99.90
19755;DHT22;10036;47.812;9.274;2022-10-31T14:15:11;14.30;99.90
19755;DHT22;10036;47.812;9.274;2022-10-31T14:17:46;14.20;99.90
19755;DHT22;10036;47.812;9.274;2022-10-31T14:20:39;14.20;99.90
19755;DHT22;10036;47.812;9.274;2022-10-31T14:23:34;14.30;99.90
19755;DHT22;10036;47.812;9.274;2022-10-31T14:26:30;14.30;99.90
19755;DHT22;10036;47.812;9.274;2022-10-31T14:28:59;14.20;99.90
19755;DHT22;10036;47.812;9.274;2022-10-31T14:31:32;14.30;99.90
19755;DHT22;10036;47.812;9.274;2022-10-31T14:34:14;14.20;99.90
19755;DHT22;10036;47.812;9.274;2022-10-31T14:36:53;14.00;99.90
19755;DHT22;10036;47.812;9.274;2022-10-31T14:39:27;13.90;99.90
19755;DHT22;10036;47.812;9.274;2022-10-31T14:42:09;13.80;99.90
19755;DHT22;10036;47.812;9.274;2022-10-31T14:45:05;13.80;99.90
19755;DHT22;10036;47.812;9.274;2022-10-31T14:47:41;13.80;99.90
19755;DHT22;10036;47.812;9.274;2022-10-31T14:50:32;13.80;99.90
19755;DHT22;10036;47.812;9.274;2022-10-31T14:53:05;13.80;99.90
19755;DHT22;10036;47.812;9.274;2022-10-31T14:55:33;13.80;99.90
19755;DHT22;10036;47.812;9.274;2022-10-31T14:58:04;13.90;99.90
19755;DHT22;10036;47.812;9.274;2022-10-31T15:00:33;13.80;99.90
19755;DHT22;10036;47.812;9.274;2022-10-31T15:03:09;13.80;99.90
19755;DHT22;10036;47.812;9.274;2022-10-31T15:05:42;13.80;99.90
19755;DHT22;10036;47.812;9.274;2022-10-31T15:08:25;13.80;99.90
19755;DHT22;10036;47.812;9.274;2022-10-31T15:10:53;13.80;99.90
19755;DHT22;10036;47.812;9.274;2022-10-31T15:13:22;13.70;99.90
19755;DHT22;10036;47.812;9.274;2022-10-31T15:15:51;13.80;99.90
19755;DHT22;10036;47.812;9.274;2022-10-31T15:18:22;13.70;99.90
19755;DHT22;10036;47.812;9.274;2022-10-31T15:20:50;13.70;99.90
19755;DHT22;10036;47.812;9.274;2022-10-31T15:23:22;13.80;99.90
19755;DHT22;10036;47.812;9.274;2022-10-31T15:25:50;13.80;99.90
19755;DHT22;10036;47.812;9.274;2022-10-31T15:28:23;13.70;99.90
19755;DHT22;10036;47.812;9.274;2022-10-31T15:30:53;13.50;99.90
19755;DHT22;10036;47.812;9.274;2022-10-31T15:33:23;13.30;99.90
19755;DHT22;10036;47.812;9.274;2022-10-31T15:35:58;13.10;99.90
19755;DHT22;10036;47.812;9.274;2022-10-31T15:38:25;13.10;99.90
19755;DHT22;10036;47.812;9.274;2022-10-31T15:40:55;13.10;99.90
19755;DHT22;10036;47.812;9.274;2022-10-31T15:43:24;13.00;99.90
19755;DHT22;10036;47.812;9.274;2022-10-31T15:45:51;13.00;99.90
19755;DHT22;10036;47.812;9.274;2022-10-31T15:48:22;12.90;99.90
19755;DHT22;10036;47.812;9.274;2022-10-31T15:50:52;12.80;99.90
19755;DHT22;10036;47.812;9.274;2022-10-31T15:53:22;12.70;99.90
19755;DHT22;10036;47.812;9.274;2022-10-31T15:55:52;12.60;99.90
19755;DHT22;10036;47.812;9.274;2022-10-31T15:58:20;12.40;99.90
19755;DHT22;10036;47.812;9.274;2022-10-31T16:00:59;12.40;99.90
19755;DHT22;10036;47.812;9.274;2022-10-31T16:03:27;12.40;99.90
19755;DHT22;10036;47.812;9.274;2022-10-31T16:05:55;12.30;99.90
19755;DHT22;10036;47.812;9.274;2022-10-31T16:11:18;12.10;99.90
19755;DHT22;10036;47.812;9.274;2022-10-31T16:14:02;12.20;99.90